Time;durP1;ratioP1;P1;durP2;ratioP2;P2;SDS_P1;SDS_P2;PMS_P1;PMS_P2;Temp;Humidity;BMP_temperature;BMP_pressure;BME280_temperature;BME280_humidity;BME280_pressure;Samples;Min_cycle;Max_cycle;Signal;HPM_P1;HPM_P2
2022/06/16 00:00:28;;;;;;;5.03;4.15;;;;;;;;;;4840220;29;20037;-77
2022/06/16 00:02:54;;;;;;;5.03;4.13;;;;;;;;;;4826056;29;20026;-78
2022/06/16 00:05:25;;;;;;;5.38;4.30;;;;;;;;;;4825896;29;20045;-77
2022/06/16 00:07:51;;;;;;;5.43;4.78;;;;;;;;;;4840236;29;20049;-79
2022/06/16 00:10:18;;;;;;;5.93;4.22;;;;;;;;;;4826276;29;20388;-78
2022/06/16 00:12:44;;;;;;;6.25;4.47;;;;;;;;;;4826066;29;20037;-80
2022/06/16 00:15:12;;;;;;;6.07;4.47;;;;;;;;;;4826157;29;20038;-82
2022/06/16 00:17:38;;;;;;;6.50;4.43;;;;;;;;;;4840077;29;20037;-77
2022/06/16 00:20:05;;;;;;;8.55;4.93;;;;;;;;;;4839717;29;20035;-78
2022/06/16 00:22:32;;;;;;;5.75;4.90;;;;;;;;;;4839778;29;20041;-78
2022/06/16 00:24:58;;;;;;;8.32;4.60;;;;;;;;;;4839780;29;20034;-79
2022/06/16 00:27:24;;;;;;;6.88;5.10;;;;;;;;;;4825766;29;20034;-79
2022/06/16 00:29:51;;;;;;;5.88;4.55;;;;;;;;;;4839651;29;20075;-78
2022/06/16 00:32:17;;;;;;;9.57;5.15;;;;;;;;;;4825495;29;20057;-79
2022/06/16 00:34:43;;;;;;;7.07;5.00;;;;;;;;;;4839432;29;20031;-79
2022/06/16 00:37:12;;;;;;;5.90;4.80;;;;;;;;;;4839775;29;20563;-79
2022/06/16 00:39:39;;;;;;;7.82;5.00;;;;;;;;;;4839283;29;20500;-78
2022/06/16 00:42:09;;;;;;;9.30;5.75;;;;;;;;;;4825270;29;20496;-78
2022/06/16 00:44:40;;;;;;;7.13;4.95;;;;;;;;;;4825433;29;20085;-79
2022/06/16 00:47:06;;;;;;;7.22;5.00;;;;;;;;;;4839329;29;20461;-79
2022/06/16 00:49:34;;;;;;;6.18;4.65;;;;;;;;;;4839458;29;20033;-83
2022/06/16 00:52:03;;;;;;;5.97;4.70;;;;;;;;;;4825561;29;20031;-80
2022/06/16 00:54:37;;;;;;;6.70;4.88;;;;;;;;;;4825261;29;20030;-83
2022/06/16 00:57:06;;;;;;;6.93;5.25;;;;;;;;;;4838941;29;20058;-78
2022/06/16 00:59:33;;;;;;;7.55;4.57;;;;;;;;;;4839311;29;20034;-83
2022/06/16 01:01:59;;;;;;;6.22;4.35;;;;;;;;;;4825395;29;20062;-79
2022/06/16 01:07:14;;;;;;;6.05;4.05;;;;;;;;;;4825550;29;20066;-78
2022/06/16 01:09:41;;;;;;;5.20;4.20;;;;;;;;;;4839046;29;20034;-80
2022/06/16 01:15:01;;;;;;;5.63;4.13;;;;;;;;;;4825316;29;20082;-80
2022/06/16 01:17:36;;;;;;;7.25;4.18;;;;;;;;;;4838861;29;20434;-79
2022/06/16 01:20:19;;;;;;;4.38;3.92;;;;;;;;;;4825130;29;20078;-77
2022/06/16 01:22:48;;;;;;;5.50;4.05;;;;;;;;;;4839071;29;20073;-82
2022/06/16 01:25:33;;;;;;;5.75;4.10;;;;;;;;;;4838470;29;20038;-78
2022/06/16 01:27:59;;;;;;;8.25;4.22;;;;;;;;;;4838782;29;20030;-79
2022/06/16 01:30:40;;;;;;;5.97;4.32;;;;;;;;;;4825113;29;20067;-80
2022/06/16 01:33:11;;;;;;;4.90;4.18;;;;;;;;;;4838703;29;20035;-79
2022/06/16 01:35:41;;;;;;;4.95;4.43;;;;;;;;;;4838615;29;20031;-78
2022/06/16 01:38:13;;;;;;;6.53;4.80;;;;;;;;;;4838884;29;20027;-76
2022/06/16 01:40:45;;;;;;;5.30;4.60;;;;;;;;;;4838560;29;20062;-78
2022/06/16 01:43:11;;;;;;;5.57;4.47;;;;;;;;;;4838531;29;20504;-78
2022/06/16 01:45:54;;;;;;;7.90;4.55;;;;;;;;;;4838753;29;20114;-78
2022/06/16 01:48:21;;;;;;;6.33;4.40;;;;;;;;;;4838477;29;20126;-79
2022/06/16 01:50:56;;;;;;;6.45;4.90;;;;;;;;;;4838647;29;20508;-79
2022/06/16 01:53:27;;;;;;;7.07;4.75;;;;;;;;;;4838490;29;20102;-78
2022/06/16 01:55:58;;;;;;;7.88;4.85;;;;;;;;;;4824659;29;20035;-79
2022/06/16 01:58:27;;;;;;;5.10;4.60;;;;;;;;;;4838441;29;20121;-78
2022/06/16 02:00:55;;;;;;;5.90;4.90;;;;;;;;;;4838684;29;20039;-83
2022/06/16 02:03:41;;;;;;;6.88;4.90;;;;;;;;;;4824292;29;20049;-78
2022/06/16 02:06:16;;;;;;;6.15;4.20;;;;;;;;;;4838631;29;20504;-79
2022/06/16 02:08:45;;;;;;;7.35;4.72;;;;;;;;;;4838402;29;20125;-79
2022/06/16 02:11:11;;;;;;;6.65;4.57;;;;;;;;;;4838440;29;20025;-79
2022/06/16 02:13:40;;;;;;;9.52;5.20;;;;;;;;;;4838529;29;20043;-79
2022/06/16 02:16:15;;;;;;;5.90;4.70;;;;;;;;;;4840090;29;20083;-78
2022/06/16 02:18:42;;;;;;;5.28;4.55;;;;;;;;;;4841858;29;20026;-79
2022/06/16 02:21:23;;;;;;;5.97;4.60;;;;;;;;;;4841879;29;20030;-78
2022/06/16 02:23:50;;;;;;;6.43;4.32;;;;;;;;;;4841855;29;20038;-78
2022/06/16 02:26:16;;;;;;;6.22;4.35;;;;;;;;;;4827832;29;20055;-82
2022/06/16 02:28:47;;;;;;;7.43;4.70;;;;;;;;;;4841445;29;20034;-77
2022/06/16 02:31:36;;;;;;;7.75;4.60;;;;;;;;;;4841821;29;20453;-79
2022/06/16 02:34:15;;;;;;;5.78;4.47;;;;;;;;;;4841910;29;20031;-83
2022/06/16 02:37:08;;;;;;;5.25;4.13;;;;;;;;;;4841502;29;20501;-77
2022/06/16 02:39:42;;;;;;;5.18;4.03;;;;;;;;;;4825443;29;20045;-79
2022/06/16 02:42:27;;;;;;;5.93;4.80;;;;;;;;;;4841501;29;20027;-79
2022/06/16 02:45:03;;;;;;;7.32;4.85;;;;;;;;;;4841459;29;20454;-83
2022/06/16 02:47:44;;;;;;;6.97;4.57;;;;;;;;;;4841799;29;20117;-79
2022/06/16 02:50:12;;;;;;;7.93;4.93;;;;;;;;;;4827193;29;20524;-79
2022/06/16 02:52:40;;;;;;;5.95;4.72;;;;;;;;;;4841300;29;20035;-79
2022/06/16 02:55:07;;;;;;;6.40;4.88;;;;;;;;;;4841376;29;20497;-78
2022/06/16 02:57:42;;;;;;;6.35;4.55;;;;;;;;;;4841151;29;20061;-79
2022/06/16 03:00:12;;;;;;;5.80;4.45;;;;;;;;;;4840808;29;20082;-79
2022/06/16 03:02:39;;;;;;;5.85;4.65;;;;;;;;;;4841142;29;20034;-79
2022/06/16 03:05:05;;;;;;;5.72;4.70;;;;;;;;;;4841581;29;20042;-78
2022/06/16 03:07:33;;;;;;;7.38;5.20;;;;;;;;;;4841227;29;20026;-78
2022/06/16 03:10:00;;;;;;;5.68;4.50;;;;;;;;;;4840867;29;20034;-77
2022/06/16 03:12:27;;;;;;;6.25;4.63;;;;;;;;;;4840985;29;20033;-78
2022/06/16 03:14:56;;;;;;;5.70;4.72;;;;;;;;;;4840965;29;20146;-79
2022/06/16 03:17:22;;;;;;;5.32;4.30;;;;;;;;;;4840836;29;20062;-78
2022/06/16 03:19:48;;;;;;;6.43;5.25;;;;;;;;;;4840835;29;20057;-80
2022/06/16 03:22:15;;;;;;;6.00;4.55;;;;;;;;;;4840853;29;20107;-78
2022/06/16 03:24:41;;;;;;;5.78;4.30;;;;;;;;;;4826644;29;20042;-80
2022/06/16 03:27:08;;;;;;;5.40;4.60;;;;;;;;;;4840541;29;20521;-77
2022/06/16 03:29:34;;;;;;;7.50;4.75;;;;;;;;;;4840851;29;20034;-78
2022/06/16 03:32:00;;;;;;;6.03;5.10;;;;;;;;;;4840870;29;20032;-79
2022/06/16 03:34:27;;;;;;;7.30;5.00;;;;;;;;;;4841215;29;20029;-78
2022/06/16 03:36:53;;;;;;;5.85;4.75;;;;;;;;;;4827109;29;20117;-78
2022/06/16 03:39:19;;;;;;;6.63;4.90;;;;;;;;;;4840656;29;20504;-77
2022/06/16 03:41:46;;;;;;;6.80;5.18;;;;;;;;;;4826310;29;20042;-76
2022/06/16 03:44:12;;;;;;;6.57;5.15;;;;;;;;;;4826300;29;20047;-80
2022/06/16 03:46:39;;;;;;;8.05;5.15;;;;;;;;;;4840223;29;20030;-79
2022/06/16 03:49:06;;;;;;;6.40;4.50;;;;;;;;;;4840572;29;20157;-77
2022/06/16 03:51:32;;;;;;;6.93;5.32;;;;;;;;;;4840270;29;20027;-79
2022/06/16 03:53:58;;;;;;;7.03;4.93;;;;;;;;;;4840351;29;20038;-78
2022/06/16 03:56:24;;;;;;;5.20;4.68;;;;;;;;;;4825932;29;20047;-80
2022/06/16 03:58:54;;;;;;;6.28;4.80;;;;;;;;;;4826466;29;20046;-82
2022/06/16 04:01:21;;;;;;;8.95;5.20;;;;;;;;;;4840164;29;20494;-82
2022/06/16 04:04:02;;;;;;;6.05;4.80;;;;;;;;;;4839968;29;20042;-80
2022/06/16 04:06:32;;;;;;;6.38;5.05;;;;;;;;;;4840142;29;20055;-78
2022/06/16 04:08:59;;;;;;;5.65;4.72;;;;;;;;;;4840284;29;20030;-79
2022/06/16 04:11:28;;;;;;;5.32;4.38;;;;;;;;;;4840108;29;20046;-79
2022/06/16 04:13:57;;;;;;;6.15;4.43;;;;;;;;;;4839854;29;20038;-83
2022/06/16 04:16:23;;;;;;;5.82;4.00;;;;;;;;;;4839933;29;20366;-78
2022/06/16 04:18:49;;;;;;;9.20;4.18;;;;;;;;;;4839847;29;20037;-77
2022/06/16 04:21:16;;;;;;;6.32;4.53;;;;;;;;;;4825770;29;20110;-78
2022/06/16 04:23:51;;;;;;;6.90;4.93;;;;;;;;;;4839669;29;20042;-79
2022/06/16 04:26:18;;;;;;;6.05;3.90;;;;;;;;;;4825660;29;20022;-83
2022/06/16 04:28:44;;;;;;;6.32;4.30;;;;;;;;;;4839417;29;20456;-78
2022/06/16 04:31:10;;;;;;;5.82;3.97;;;;;;;;;;4839130;29;20026;-79
2022/06/16 04:33:37;;;;;;;6.53;3.70;;;;;;;;;;4839228;29;20031;-81
2022/06/16 04:36:03;;;;;;;4.93;2.78;;;;;;;;;;4839286;29;20117;-80
2022/06/16 04:38:29;;;;;;;4.20;2.58;;;;;;;;;;4838427;29;20080;-79
2022/06/16 04:40:58;;;;;;;5.55;2.90;;;;;;;;;;4839248;29;20067;-83
2022/06/16 04:43:24;;;;;;;7.82;3.53;;;;;;;;;;4839300;29;20500;-82
2022/06/16 04:45:50;;;;;;;5.15;3.00;;;;;;;;;;4839229;29;20045;-81
2022/06/16 04:48:16;;;;;;;5.00;3.08;;;;;;;;;;4824497;29;20061;-80
2022/06/16 04:50:42;;;;;;;7.35;2.75;;;;;;;;;;4824790;29;20034;-84
2022/06/16 04:53:09;;;;;;;4.88;2.70;;;;;;;;;;4839061;29;20059;-80
2022/06/16 04:55:35;;;;;;;6.00;2.65;;;;;;;;;;4839326;29;20041;-81
2022/06/16 04:58:02;;;;;;;4.97;2.20;;;;;;;;;;4838752;29;20492;-80
2022/06/16 05:00:28;;;;;;;3.83;2.10;;;;;;;;;;4839263;29;20492;-82
2022/06/16 05:02:54;;;;;;;3.72;2.10;;;;;;;;;;4825055;29;20215;-82
2022/06/16 05:05:21;;;;;;;3.65;2.00;;;;;;;;;;4839124;29;20094;-83
2022/06/16 05:07:47;;;;;;;4.63;2.28;;;;;;;;;;4839070;29;20462;-82
2022/06/16 05:10:13;;;;;;;4.20;2.08;;;;;;;;;;4825124;29;20063;-85
2022/06/16 05:12:40;;;;;;;6.35;2.05;;;;;;;;;;4838720;29;20441;-80
2022/06/16 05:15:06;;;;;;;3.92;2.15;;;;;;;;;;4825037;29;20026;-81
2022/06/16 05:17:33;;;;;;;6.07;2.58;;;;;;;;;;4825259;29;20037;-83
2022/06/16 05:19:59;;;;;;;4.07;2.20;;;;;;;;;;4825266;29;20461;-82
2022/06/16 05:22:25;;;;;;;4.38;1.92;;;;;;;;;;4824630;29;20035;-81
2022/06/16 05:24:52;;;;;;;6.60;2.00;;;;;;;;;;4825240;29;20038;-84
2022/06/16 05:27:18;;;;;;;3.20;2.15;;;;;;;;;;4838877;29;20037;-81
2022/06/16 05:29:44;;;;;;;3.92;2.03;;;;;;;;;;4824865;29;20113;-81
2022/06/16 05:32:11;;;;;;;9.15;2.45;;;;;;;;;;4825064;29;20041;-80
2022/06/16 05:34:37;;;;;;;3.03;2.17;;;;;;;;;;4838697;29;20031;-81
2022/06/16 05:37:04;;;;;;;3.50;2.50;;;;;;;;;;4838443;29;20041;-81
2022/06/16 05:39:30;;;;;;;6.70;2.47;;;;;;;;;;4838682;29;20095;-81
2022/06/16 05:41:56;;;;;;;6.60;2.15;;;;;;;;;;4838641;29;20038;-81
2022/06/16 05:44:23;;;;;;;6.55;1.88;;;;;;;;;;4824635;29;20072;-80
2022/06/16 05:46:49;;;;;;;4.53;2.40;;;;;;;;;;4838375;29;20395;-83
2022/06/16 05:49:16;;;;;;;4.43;2.17;;;;;;;;;;4838437;29;20121;-80
2022/06/16 05:51:42;;;;;;;2.80;1.60;;;;;;;;;;4824595;29;20492;-80
2022/06/16 05:54:08;;;;;;;5.70;2.10;;;;;;;;;;4838412;29;20031;-81
2022/06/16 05:56:35;;;;;;;5.07;2.08;;;;;;;;;;4837855;29;20072;-83
2022/06/16 05:59:01;;;;;;;4.93;1.83;;;;;;;;;;4838392;29;20038;-83
2022/06/16 06:01:28;;;;;;;5.68;1.92;;;;;;;;;;4838053;29;20087;-81
2022/06/16 06:03:54;;;;;;;3.35;2.20;;;;;;;;;;4838256;29;20049;-83
2022/06/16 06:06:20;;;;;;;3.10;1.60;;;;;;;;;;4838191;29;20114;-80
2022/06/16 06:17:03;;;;;;;4.72;2.28;;;;;;;;;;4824361;29;20106;-79
2022/06/16 06:19:31;;;;;;;3.08;1.60;;;;;;;;;;4838136;29;20028;-82
2022/06/16 06:22:10;;;;;;;2.90;1.60;;;;;;;;;;4837948;29;20049;-81
2022/06/16 06:24:38;;;;;;;3.65;1.98;;;;;;;;;;4838030;29;20034;-79
2022/06/16 06:27:25;;;;;;;3.20;2.08;;;;;;;;;;4837123;29;20477;-81
2022/06/16 06:29:51;;;;;;;4.25;1.80;;;;;;;;;;4819664;29;20129;-84
2022/06/16 06:32:18;;;;;;;4.20;1.60;;;;;;;;;;4837719;29;20038;-84
2022/06/16 06:34:44;;;;;;;4.43;2.00;;;;;;;;;;4837709;29;20057;-83
2022/06/16 06:37:11;;;;;;;4.28;1.85;;;;;;;;;;4838479;29;20038;-83
2022/06/16 06:39:38;;;;;;;4.28;2.17;;;;;;;;;;4838126;29;20051;-84
2022/06/16 06:42:04;;;;;;;3.40;1.85;;;;;;;;;;4837898;29;20034;-91
2022/06/16 06:44:30;;;;;;;4.00;2.30;;;;;;;;;;4838465;29;20038;-85
2022/06/16 06:46:57;;;;;;;3.13;2.10;;;;;;;;;;4823962;29;20037;-88
2022/06/16 06:49:23;;;;;;;4.80;2.28;;;;;;;;;;4824171;29;20058;-78
2022/06/16 06:51:49;;;;;;;3.60;2.42;;;;;;;;;;4837774;29;20030;-81
2022/06/16 06:54:17;;;;;;;7.00;2.83;;;;;;;;;;4837405;29;20090;-82
2022/06/16 06:56:44;;;;;;;7.47;2.40;;;;;;;;;;4823327;29;20106;-74
2022/06/16 06:59:13;;;;;;;5.45;2.85;;;;;;;;;;4837690;29;20050;-79
2022/06/16 07:01:40;;;;;;;10.05;3.10;;;;;;;;;;4838846;29;20038;-76
2022/06/16 07:04:06;;;;;;;7.75;2.58;;;;;;;;;;4840680;29;20496;-76
2022/06/16 07:06:32;;;;;;;5.50;2.70;;;;;;;;;;4840547;29;20030;-76
2022/06/16 07:08:58;;;;;;;10.13;3.67;;;;;;;;;;4840802;29;20034;-74
2022/06/16 07:11:24;;;;;;;6.22;2.70;;;;;;;;;;4826749;29;20109;-74
2022/06/16 07:13:51;;;;;;;4.93;2.72;;;;;;;;;;4840853;29;20034;-74
2022/06/16 07:16:17;;;;;;;7.82;3.03;;;;;;;;;;4840734;29;20023;-79
2022/06/16 07:18:45;;;;;;;4.22;2.80;;;;;;;;;;4840394;29;20489;-73
2022/06/16 07:21:11;;;;;;;9.15;2.90;;;;;;;;;;4840773;29;20033;-73
2022/06/16 07:23:37;;;;;;;6.13;2.70;;;;;;;;;;4826488;29;20404;-81
2022/06/16 07:26:03;;;;;;;4.20;2.47;;;;;;;;;;4826682;29;20035;-78
2022/06/16 07:28:30;;;;;;;6.60;2.83;;;;;;;;;;4840626;29;20034;-82
2022/06/16 07:30:56;;;;;;;4.53;2.35;;;;;;;;;;4840645;29;20034;-81
2022/06/16 07:33:23;;;;;;;6.25;2.90;;;;;;;;;;4840333;29;20050;-76
2022/06/16 07:35:52;;;;;;;4.30;2.50;;;;;;;;;;4826520;29;20079;-81
2022/06/16 07:38:18;;;;;;;5.03;2.60;;;;;;;;;;4840507;29;20026;-78
2022/06/16 07:40:44;;;;;;;9.65;3.00;;;;;;;;;;4826527;29;20038;-82
2022/06/16 07:43:10;;;;;;;5.07;2.80;;;;;;;;;;4840149;29;20034;-82
2022/06/16 07:45:38;;;;;;;4.53;2.30;;;;;;;;;;4825968;29;20033;-81
2022/06/16 07:48:05;;;;;;;5.00;2.50;;;;;;;;;;4840040;29;20026;-80
2022/06/16 07:50:32;;;;;;;5.22;2.60;;;;;;;;;;4826068;29;20065;-80
2022/06/16 07:52:58;;;;;;;5.93;3.10;;;;;;;;;;4840209;29;20465;-82
2022/06/16 07:55:24;;;;;;;5.72;2.40;;;;;;;;;;4840034;29;20039;-82
2022/06/16 07:57:51;;;;;;;7.22;2.33;;;;;;;;;;4839922;29;20405;-81
2022/06/16 08:00:19;;;;;;;4.63;2.53;;;;;;;;;;4839854;29;20068;-80
2022/06/16 08:02:45;;;;;;;6.53;2.90;;;;;;;;;;4825996;29;20039;-81
2022/06/16 08:05:11;;;;;;;6.32;3.53;;;;;;;;;;4839961;29;20056;-82
2022/06/16 08:07:42;;;;;;;5.25;2.90;;;;;;;;;;4825989;29;20041;-80
2022/06/16 08:10:11;;;;;;;4.53;2.28;;;;;;;;;;4839617;29;20565;-80
2022/06/16 08:12:38;;;;;;;6.97;2.20;;;;;;;;;;4839193;29;20030;-83
2022/06/16 08:15:04;;;;;;;5.82;2.65;;;;;;;;;;4825767;29;20503;-79
2022/06/16 08:17:32;;;;;;;4.90;2.17;;;;;;;;;;4839840;29;20026;-80
2022/06/16 08:20:00;;;;;;;4.95;2.30;;;;;;;;;;4839724;29;20121;-81
2022/06/16 08:22:27;;;;;;;12.23;2.45;;;;;;;;;;4839673;29;20022;-81
2022/06/16 08:24:53;;;;;;;4.80;2.40;;;;;;;;;;4839374;29;20572;-80
2022/06/16 08:27:21;;;;;;;6.30;2.30;;;;;;;;;;4839669;29;20064;-82
2022/06/16 08:29:47;;;;;;;5.65;1.98;;;;;;;;;;4825535;29;20499;-80
2022/06/16 08:32:15;;;;;;;5.15;1.92;;;;;;;;;;4839363;29;20499;-81
2022/06/16 08:34:41;;;;;;;9.93;1.95;;;;;;;;;;4825578;29;20054;-80
2022/06/16 08:37:07;;;;;;;3.97;1.63;;;;;;;;;;4839489;29;20031;-80
2022/06/16 08:39:35;;;;;;;3.95;1.70;;;;;;;;;;4825359;29;20065;-80
2022/06/16 08:42:02;;;;;;;5.20;1.55;;;;;;;;;;4838799;29;20039;-79
2022/06/16 08:44:39;;;;;;;3.35;1.58;;;;;;;;;;4825447;29;20042;-81
2022/06/16 08:47:18;;;;;;;3.63;1.63;;;;;;;;;;4839272;29;20034;-81
2022/06/16 08:50:03;;;;;;;3.72;1.80;;;;;;;;;;4839325;29;20511;-83
2022/06/16 08:52:30;;;;;;;3.20;1.55;;;;;;;;;;4839095;29;20370;-81
2022/06/16 08:55:07;;;;;;;3.67;1.65;;;;;;;;;;4838917;29;20481;-81
2022/06/16 08:57:43;;;;;;;4.45;1.40;;;;;;;;;;4825095;29;20082;-80
2022/06/16 09:00:15;;;;;;;3.55;1.90;;;;;;;;;;4825214;29;20069;-80
2022/06/16 09:02:59;;;;;;;3.55;1.60;;;;;;;;;;4825137;29;20386;-85
2022/06/16 09:05:43;;;;;;;5.95;1.73;;;;;;;;;;4839050;29;20436;-79
2022/06/16 09:08:28;;;;;;;3.70;1.30;;;;;;;;;;4838939;29;20129;-82
2022/06/16 09:11:11;;;;;;;3.63;1.52;;;;;;;;;;4839102;29;20030;-82
2022/06/16 09:13:58;;;;;;;6.35;1.67;;;;;;;;;;4839015;29;20087;-82
2022/06/16 09:16:29;;;;;;;6.30;1.70;;;;;;;;;;4838955;29;20037;-80
2022/06/16 09:18:55;;;;;;;;;;;;;;;;;;4839151;29;20649;-81
2022/06/16 09:21:21;;;;;;;3.92;1.88;;;;;;;;;;4838882;29;19909;-81
2022/06/16 09:24:06;;;;;;;3.13;1.42;;;;;;;;;;4824658;29;20061;-82
2022/06/16 09:26:40;;;;;;;3.25;1.40;;;;;;;;;;4838537;29;20037;-82
2022/06/16 09:29:18;;;;;;;3.97;1.92;;;;;;;;;;4838897;29;20139;-87
2022/06/16 09:32:03;;;;;;;3.70;1.38;;;;;;;;;;4838816;29;20030;-80
2022/06/16 09:34:36;;;;;;;5.97;1.80;;;;;;;;;;4838779;29;20065;-81
2022/06/16 09:37:22;;;;;;;5.40;1.60;;;;;;;;;;4838728;29;20125;-79
2022/06/16 09:39:52;;;;;;;5.18;1.70;;;;;;;;;;4823488;29;20480;-88
2022/06/16 09:42:32;;;;;;;3.42;1.27;;;;;;;;;;4838855;29;20404;-88
2022/06/16 09:45:17;;;;;;;3.10;1.48;;;;;;;;;;4839412;29;20045;-87
2022/06/16 09:47:59;;;;;;;3.75;1.48;;;;;;;;;;4839037;29;20042;-88
2022/06/16 09:50:30;;;;;;;6.43;1.45;;;;;;;;;;4839763;29;20476;-85
2022/06/16 09:53:05;;;;;;;3.42;1.55;;;;;;;;;;4839175;29;20062;-85
2022/06/16 09:55:31;;;;;;;2.40;1.10;;;;;;;;;;4838886;29;20034;-87
2022/06/16 09:58:18;;;;;;;5.82;1.60;;;;;;;;;;4824706;29;20408;-89
2022/06/16 10:00:46;;;;;;;3.53;1.40;;;;;;;;;;4823004;29;20031;-82
2022/06/16 10:03:34;;;;;;;4.50;1.40;;;;;;;;;;4824357;29;20497;-76
2022/06/16 10:06:08;;;;;;;2.70;1.23;;;;;;;;;;4838542;29;20429;-82
2022/06/16 10:08:38;;;;;;;5.72;1.98;;;;;;;;;;4824276;29;20098;-87
2022/06/16 10:11:10;;;;;;;4.93;1.65;;;;;;;;;;4838500;29;20556;-86
2022/06/16 10:13:57;;;;;;;4.25;1.42;;;;;;;;;;4838186;29;20061;-89
2022/06/16 10:16:55;;;;;;;4.72;1.50;;;;;;;;;;4838672;29;20031;-89
2022/06/16 10:19:26;;;;;;;3.55;1.70;;;;;;;;;;4793979;29;20080;-82
2022/06/16 10:21:52;;;;;;;4.15;1.42;;;;;;;;;;4838917;29;20031;-86
2022/06/16 10:24:19;;;;;;;3.25;1.42;;;;;;;;;;4824856;29;20042;-89
2022/06/16 10:26:45;;;;;;;6.15;1.67;;;;;;;;;;4838675;29;20087;-85
2022/06/16 10:29:12;;;;;;;4.20;1.65;;;;;;;;;;4838531;29;20033;-85
2022/06/16 10:31:48;;;;;;;4.35;1.50;;;;;;;;;;4824652;29;20042;-84
2022/06/16 10:34:34;;;;;;;3.92;1.65;;;;;;;;;;4838175;29;20030;-85
2022/06/16 10:37:18;;;;;;;3.20;1.40;;;;;;;;;;4826227;29;20030;-84
2022/06/16 10:39:47;;;;;;;3.60;1.60;;;;;;;;;;4847035;29;20044;-79
2022/06/16 10:42:19;;;;;;;3.75;1.58;;;;;;;;;;4857818;29;20362;-88
2022/06/16 10:45:09;;;;;;;3.13;1.30;;;;;;;;;;4856968;29;20045;-82
2022/06/16 10:47:42;;;;;;;4.57;1.20;;;;;;;;;;4825867;29;20050;-83
2022/06/16 10:50:15;;;;;;;2.10;1.10;;;;;;;;;;4848115;29;20043;-86
2022/06/16 10:52:47;;;;;;;5.63;1.63;;;;;;;;;;4857204;29;20034;-90
2022/06/16 10:55:15;;;;;;;3.58;1.50;;;;;;;;;;4857067;29;20485;-87
2022/06/16 10:57:46;;;;;;;5.28;1.20;;;;;;;;;;4827071;29;20046;-83
2022/06/16 11:00:21;;;;;;;3.30;1.23;;;;;;;;;;4856867;29;20117;-81
2022/06/16 11:02:57;;;;;;;4.00;1.42;;;;;;;;;;4856587;29;20374;-83
2022/06/16 11:05:23;;;;;;;4.30;1.38;;;;;;;;;;4827721;29;20031;-79
2022/06/16 11:07:49;;;;;;;3.22;1.40;;;;;;;;;;4841710;29;20068;-86
2022/06/16 11:10:18;;;;;;;2.47;1.30;;;;;;;;;;4841966;29;20039;-81
2022/06/16 11:12:48;;;;;;;2.20;1.27;;;;;;;;;;4843203;29;20027;-85
2022/06/16 11:15:14;;;;;;;3.38;1.50;;;;;;;;;;4826850;29;20114;-84
2022/06/16 11:17:43;;;;;;;3.95;1.80;;;;;;;;;;4827017;29;20533;-83
2022/06/16 11:20:12;;;;;;;3.50;1.58;;;;;;;;;;4840985;29;20061;-83
2022/06/16 11:22:43;;;;;;;3.88;1.48;;;;;;;;;;4826679;29;20041;-80
2022/06/16 11:25:15;;;;;;;3.65;1.40;;;;;;;;;;4841086;29;20038;-82
2022/06/16 11:28:02;;;;;;;3.88;1.55;;;;;;;;;;4840856;29;20027;-85
2022/06/16 11:30:36;;;;;;;5.25;1.70;;;;;;;;;;4822847;29;20034;-86
2022/06/16 11:33:04;;;;;;;3.35;1.80;;;;;;;;;;4841813;29;20062;-82
2022/06/16 11:35:50;;;;;;;4.68;1.80;;;;;;;;;;4844391;29;20098;-82
2022/06/16 11:38:43;;;;;;;2.47;1.63;;;;;;;;;;4825039;29;20041;-84
2022/06/16 11:41:11;;;;;;;3.65;1.55;;;;;;;;;;4824653;29;20042;-84
2022/06/16 11:43:59;;;;;;;4.03;1.83;;;;;;;;;;4840656;29;20094;-81
2022/06/16 11:46:28;;;;;;;4.40;1.98;;;;;;;;;;4843197;29;20072;-86
2022/06/16 11:49:09;;;;;;;3.85;1.80;;;;;;;;;;4843435;29;20053;-84
2022/06/16 11:51:44;;;;;;;2.92;1.88;;;;;;;;;;4848180;29;20042;-84
2022/06/16 11:54:22;;;;;;;5.13;2.10;;;;;;;;;;4823928;29;20065;-91
2022/06/16 11:57:02;;;;;;;3.58;1.63;;;;;;;;;;4847594;29;20070;-84
2022/06/16 11:59:51;;;;;;;5.13;1.90;;;;;;;;;;4825929;29;20035;-84
2022/06/16 12:02:17;;;;;;;3.67;1.92;;;;;;;;;;4817852;29;20453;-86
2022/06/16 12:04:52;;;;;;;4.65;1.85;;;;;;;;;;4840432;29;20045;-84
2022/06/16 12:07:33;;;;;;;4.68;2.10;;;;;;;;;;4840943;29;20030;-89
2022/06/16 12:10:07;;;;;;;2.90;1.73;;;;;;;;;;4841950;29;20062;-86
2022/06/16 12:12:36;;;;;;;3.28;1.70;;;;;;;;;;4850586;29;20026;-86
2022/06/16 12:15:02;;;;;;;4.85;1.90;;;;;;;;;;4855800;29;20029;-85
2022/06/16 12:17:32;;;;;;;3.75;2.10;;;;;;;;;;4855813;29;20061;-91
2022/06/16 12:20:11;;;;;;;6.30;2.00;;;;;;;;;;4856067;29;20027;-84
2022/06/16 12:23:19;;;;;;;4.22;1.73;;;;;;;;;;4855828;29;20045;-84
2022/06/16 12:25:56;;;;;;;5.28;2.05;;;;;;;;;;4831196;29;20488;-86
2022/06/16 12:28:45;;;;;;;4.38;2.00;;;;;;;;;;4827021;29;20059;-82
2022/06/16 12:31:20;;;;;;;4.45;1.60;;;;;;;;;;4821766;29;20082;-82
2022/06/16 12:34:06;;;;;;;2.90;1.65;;;;;;;;;;4854533;29;20042;-86
2022/06/16 12:36:44;;;;;;;5.90;2.08;;;;;;;;;;4824570;29;20061;-85
2022/06/16 12:39:14;;;;;;;5.82;1.98;;;;;;;;;;4855333;29;20030;-87
2022/06/16 12:41:49;;;;;;;3.97;1.90;;;;;;;;;;4855452;29;20041;-81
2022/06/16 12:44:19;;;;;;;3.70;1.80;;;;;;;;;;4856419;29;20102;-83
2022/06/16 12:47:04;;;;;;;3.97;2.13;;;;;;;;;;4856653;29;20038;-83
2022/06/16 12:49:33;;;;;;;7.97;1.95;;;;;;;;;;4855230;29;20042;-82
2022/06/16 12:52:05;;;;;;;4.25;2.00;;;;;;;;;;4855353;29;20037;-86
2022/06/16 12:54:40;;;;;;;3.47;1.88;;;;;;;;;;4855138;29;20082;-82
2022/06/16 12:57:09;;;;;;;4.57;2.20;;;;;;;;;;4825235;29;20062;-80
2022/06/16 12:59:44;;;;;;;5.95;2.13;;;;;;;;;;4825137;29;20030;-73
2022/06/16 13:02:13;;;;;;;6.32;2.28;;;;;;;;;;4854548;29;20045;-79
2022/06/16 13:04:40;;;;;;;5.93;2.20;;;;;;;;;;4854419;29;20080;-85
2022/06/16 13:07:12;;;;;;;8.38;2.08;;;;;;;;;;4854785;29;20467;-81
2022/06/16 13:09:39;;;;;;;5.35;1.80;;;;;;;;;;4854890;29;20030;-86
2022/06/16 13:12:07;;;;;;;5.32;2.00;;;;;;;;;;4855033;29;20034;-85
2022/06/16 13:14:35;;;;;;;4.47;1.77;;;;;;;;;;4854315;29;20027;-75
2022/06/16 13:17:03;;;;;;;4.28;2.03;;;;;;;;;;4854635;29;20033;-90
2022/06/16 13:19:41;;;;;;;4.78;2.00;;;;;;;;;;4854341;29;20057;-89
2022/06/16 13:22:18;;;;;;;5.68;2.10;;;;;;;;;;4854510;29;20058;-81
2022/06/16 13:24:51;;;;;;;5.25;1.83;;;;;;;;;;4854519;29;20095;-85
2022/06/16 13:27:23;;;;;;;3.70;1.77;;;;;;;;;;4825201;29;20033;-84
2022/06/16 13:29:58;;;;;;;3.95;2.10;;;;;;;;;;4854757;29;20038;-85
2022/06/16 13:32:43;;;;;;;4.35;2.20;;;;;;;;;;4854065;29;20034;-89
2022/06/16 13:35:12;;;;;;;3.72;1.75;;;;;;;;;;4844066;29;20035;-87
2022/06/16 13:37:51;;;;;;;6.82;1.95;;;;;;;;;;4839523;29;20063;-93
2022/06/16 13:40:23;;;;;;;6.03;2.50;;;;;;;;;;4840969;29;20040;-84
2022/06/16 13:43:07;;;;;;;3.72;2.25;;;;;;;;;;4839566;29;20037;-83
2022/06/16 13:45:33;;;;;;;4.18;2.22;;;;;;;;;;4838869;29;20457;-84
2022/06/16 13:48:16;;;;;;;4.93;2.00;;;;;;;;;;4839290;29;20497;-90
2022/06/16 13:50:45;;;;;;;4.10;1.90;;;;;;;;;;4839822;29;20034;-84
2022/06/16 13:53:13;;;;;;;3.42;1.98;;;;;;;;;;4839177;29;20034;-84
2022/06/16 13:56:02;;;;;;;2.70;1.60;;;;;;;;;;4839775;29;20035;-83
2022/06/16 13:58:31;;;;;;;4.45;1.70;;;;;;;;;;4838561;29;20055;-83
2022/06/16 14:01:13;;;;;;;5.45;1.67;;;;;;;;;;4825298;29;20034;-88
2022/06/16 14:04:04;;;;;;;4.03;1.95;;;;;;;;;;4838965;29;20049;-89
2022/06/16 14:06:33;;;;;;;5.63;2.22;;;;;;;;;;4840313;29;20034;-89
2022/06/16 14:09:01;;;;;;;4.53;2.22;;;;;;;;;;4851501;29;20488;-88
2022/06/16 14:11:29;;;;;;;5.68;2.28;;;;;;;;;;4842836;29;20030;-83
2022/06/16 14:14:04;;;;;;;4.00;2.05;;;;;;;;;;4843333;29;20026;-88
2022/06/16 14:16:35;;;;;;;4.70;2.05;;;;;;;;;;4844162;29;20027;-89
2022/06/16 14:19:14;;;;;;;3.65;2.00;;;;;;;;;;4843417;29;20041;-90
2022/06/16 14:21:53;;;;;;;4.75;1.67;;;;;;;;;;4843211;29;20030;-89
2022/06/16 14:24:28;;;;;;;4.93;1.95;;;;;;;;;;4842755;29;20045;-91
2022/06/16 14:26:55;;;;;;;2.65;1.70;;;;;;;;;;4842038;29;20471;-81
2022/06/16 14:29:33;;;;;;;5.35;2.15;;;;;;;;;;4828440;29;20034;-89
2022/06/16 14:32:05;;;;;;;5.47;2.15;;;;;;;;;;4843611;29;20477;-92
2022/06/16 14:34:41;;;;;;;5.47;2.00;;;;;;;;;;4843702;29;20026;-87
2022/06/16 14:37:30;;;;;;;3.90;1.75;;;;;;;;;;4842596;29;20042;-92
2022/06/16 14:40:10;;;;;;;3.00;1.90;;;;;;;;;;4829259;29;20034;-84
2022/06/16 14:42:40;;;;;;;4.25;1.80;;;;;;;;;;4843395;29;20031;-83
2022/06/16 14:45:22;;;;;;;4.28;2.53;;;;;;;;;;4842922;29;20512;-84
2022/06/16 14:47:55;;;;;;;3.47;1.90;;;;;;;;;;4845194;29;20095;-90
2022/06/16 14:50:24;;;;;;;5.25;2.20;;;;;;;;;;4842793;29;20057;-94
2022/06/16 14:53:09;;;;;;;5.70;2.40;;;;;;;;;;4843342;29;20481;-89
2022/06/16 14:55:47;;;;;;;5.68;2.45;;;;;;;;;;4843632;29;20058;-91
2022/06/16 14:58:14;;;;;;;3.65;1.90;;;;;;;;;;4842140;29;20054;-89
2022/06/16 15:00:42;;;;;;;7.13;2.38;;;;;;;;;;4842324;29;20026;-87
2022/06/16 15:03:10;;;;;;;3.65;2.10;;;;;;;;;;4828900;29;20026;-87
2022/06/16 15:05:37;;;;;;;4.15;1.98;;;;;;;;;;4832001;29;20127;-83
2022/06/16 15:08:04;;;;;;;5.78;2.45;;;;;;;;;;4827635;29;20041;-86
2022/06/16 15:10:31;;;;;;;5.13;2.25;;;;;;;;;;4841866;29;20117;-83
2022/06/16 15:13:04;;;;;;;4.57;2.40;;;;;;;;;;4828213;29;20066;-89
2022/06/16 15:15:33;;;;;;;7.13;2.20;;;;;;;;;;4842920;29;20391;-86
2022/06/16 15:18:11;;;;;;;5.82;2.22;;;;;;;;;;4842107;29;20026;-93
2022/06/16 15:20:48;;;;;;;5.10;2.15;;;;;;;;;;4842222;29;20030;-90